Little Rock, AR

7:42 AM CDT on June 23, 2017 (GMT -0500)
Democrat-Gazette Downtown | | Change Station

Elev 371 ft 34.74 °N, 92.27 °W | Updated 15 seconds ago

Overcast
Overcast
77.2 °F
Feels Like 79 °F
N
2.5
Wind Variable Wind from South
Gusts 4.9 mph

Today
High -- | Low -- °F
--% Chance of Precip.
Yesterday
High -- | Low -- °F
Precip. -- in
Pressure 29.68 in
Visibility 7.0 miles
Clouds Scattered Clouds 600 ft
Mostly Cloudy 1300 ft
Overcast 2200 ft
Heat Index 79 °F
Dew Point 75 °F
Humidity 92%
Rainfall 0.17 in
Snow Depth Not available.
5:56 AM 8:26 PM
Waning Crescent, 1% visible
METAR KLIT 231153Z 25009KT 7SM SCT006 BKN013 OVC022 24/24 A2968 RMK AO2 SLP051 60006 70076 T02390239 10244 20239 53028 $
Pressure 29.68 in
Visibility 7.0 miles
Clouds Scattered Clouds 600 ft
Mostly Cloudy 1300 ft
Overcast 2200 ft
Heat Index 79 °F
Dew Point 75 °F
Humidity 92%
Rainfall 0.17 in
Snow Depth Not available.
5:56 AM 8:26 PM
Waning Crescent, 1% visible
METAR KLIT 231153Z 25009KT 7SM SCT006 BKN013 OVC022 24/24 A2968 RMK AO2 SLP051 60006 70076 T02390239 10244 20239 53028 $

Get Severe Weather Alerts

Thanks for signing up!

Be on the lookout for a verification email in your inbox.

You'll start receiving the daily forecast at 6 AM.

×

10-Day Weather Forecast

Almanac

Astronomy

Jun. 23, 2017 Rise Set
Actual Time
Civil Twilight
Nautical Twilight
Astronomical Twilight
Moon
Length of Visible Light
Length of Day
Tomorrow will be .
, % of the Moon is Illuminated

Today's Extremes

State Highs State Lows

Community

WunderPhotos

Category 6

Welcome to Category 6. This is the collective home for Weather Underground's featured writeups by Dr. Jeff Masters (right), Bob Henson (left), Chris Burt, and other regular contributors.

Nearby

Air Quality

  Air Quality AQ Index Pollutant
Not available.

Snow Depth

Station Depth Elevation

Earthquake Activity

City Distance Mag. Time & Date
Minimum magnitude displayed is 2.5.

Coastal Water Temperatures

Place Temperature

Stations

Nearby Weather Stations

Station Location Temp. Windchill Dew Point Humidity Wind Precip. Elev Updated Type
                   

Watches & Warnings

There are currently no watches in effect.